Aviation Digital Data Service (ADDS)

Output produced by METARs form (0219 UTC 05 August 2015)
found at http://aviationweather.gov/adds/metars/
 
KRIC 042330Z 0500/0524 25006KT P6SM FEW060 SCT250 BKN300 
     FM051000 29006KT P6SM SCT250 
     FM051800 29008G14KT P6SM BKN250 
     FM052100 30009KT P6SM BKN250